Hovedside
METAR-TAF:

METAR-TAF

Lufthavner :

Tammerfors, Finland

Tammerfors-Birkala lufthavn

breddegrad: 61-25N, lengdegrad: 023-35E, høyde over havet: 112 m

Gjeldene værobservasjon

Denne rapporten ble laget for 24 minutter siden, klokken 13:20 UTC
Vind 8 kt fra Nord
Temperatur -6°C
Luftfuktighet 68%
Trykk 1036 hPa
Sikt 10 km eller mer
ingen skyer under 1500 m og ingen bygeskyer

METAR: EFTP 251320Z AUTO 35008KT CAVOK M06/M11 Q1036

Tid: 15:44 (13:44 UTC)

Varsel

Denne rapporten ble laget for 2 timer og 13 minutter siden, klokken 11:31 UTC
Varsel gyldig fra 25. klokken 12 UTC til 26. klokken 12 UTC
Vind 9 kt fra Nord
Sikt 10 km eller mer
Få skyer i en høyde av 2500 ft
Brutte skyer i en høyde av 6500 ft
Sannsynlighet 30% :
Midlertidig
fra 25. klokken 12 UTC til 26. klokken 03 UTC
Sikt: 4000 m
Brutte skyer i en høyde av 1300 ft
lett snø

TAF: EFTP 251131Z 2512/2612 01009KT 9999 FEW025 BKN065 PROB30 TEMPO 2512/2603 4000 -SN BKN013

Værobservasjoner og værvarsel for over 4000 flyplasser (METAR- og TAF-rapporter).

Tilgjengelige stasjoner er representert av de røde og gule prikkene på kartet.

Hold musepekeren over prikken for å se navnet på stasjonen.

Klikk så for å se værobservasjoner og -varsler.

For å forandre kartet kan du klikke på den grønne knappen med svart kryss for å zoome inn, på den grønne knappen med strek for å zoome ut, eller på de grønne pilene for å se tilstøtende kart.


METAR-TAF: